sensor_id;sensor_type;location;lat;lon;timestamp;temperature;humidity
14993;DHT22;7592;51.088;13.732;2023-07-20T00:02:18;19.00;99.90
14993;DHT22;7592;51.088;13.732;2023-07-20T00:07:10;19.00;99.90
14993;DHT22;7592;51.088;13.732;2023-07-20T00:12:02;19.00;99.90
14993;DHT22;7592;51.088;13.732;2023-07-20T00:16:56;18.90;99.90
14993;DHT22;7592;51.088;13.732;2023-07-20T00:21:48;19.00;99.90
14993;DHT22;7592;51.088;13.732;2023-07-20T00:26:41;19.00;99.90
14993;DHT22;7592;51.088;13.732;2023-07-20T00:31:33;18.90;99.90
14993;DHT22;7592;51.088;13.732;2023-07-20T00:36:27;18.80;99.90
14993;DHT22;7592;51.088;13.732;2023-07-20T00:41:19;18.80;99.90
14993;DHT22;7592;51.088;13.732;2023-07-20T00:46:11;18.80;99.90
14993;DHT22;7592;51.088;13.732;2023-07-20T00:51:04;18.90;99.90
14993;DHT22;7592;51.088;13.732;2023-07-20T00:55:56;19.00;99.90
14993;DHT22;7592;51.088;13.732;2023-07-20T01:00:49;19.00;99.90
14993;DHT22;7592;51.088;13.732;2023-07-20T02:16:04;17.40;99.90
14993;DHT22;7592;51.088;13.732;2023-07-20T02:20:57;17.40;99.90
14993;DHT22;7592;51.088;13.732;2023-07-20T02:25:49;17.50;99.90
14993;DHT22;7592;51.088;13.732;2023-07-20T02:30:42;17.60;99.90
14993;DHT22;7592;51.088;13.732;2023-07-20T02:35:34;17.50;99.90
14993;DHT22;7592;51.088;13.732;2023-07-20T02:40:26;17.60;99.90
14993;DHT22;7592;51.088;13.732;2023-07-20T02:45:19;17.60;99.90
14993;DHT22;7592;51.088;13.732;2023-07-20T02:50:11;17.50;99.90
14993;DHT22;7592;51.088;13.732;2023-07-20T02:55:06;17.40;99.90
14993;DHT22;7592;51.088;13.732;2023-07-20T02:59:58;17.30;99.90
14993;DHT22;7592;51.088;13.732;2023-07-20T03:04:50;17.30;99.90
14993;DHT22;7592;51.088;13.732;2023-07-20T03:09:43;17.50;99.90
14993;DHT22;7592;51.088;13.732;2023-07-20T03:14:35;17.40;99.90
14993;DHT22;7592;51.088;13.732;2023-07-20T03:19:28;17.20;99.90
14993;DHT22;7592;51.088;13.732;2023-07-20T03:24:20;17.10;99.90
14993;DHT22;7592;51.088;13.732;2023-07-20T03:29:13;17.10;99.90
14993;DHT22;7592;51.088;13.732;2023-07-20T03:34:05;17.00;99.90
14993;DHT22;7592;51.088;13.732;2023-07-20T03:38:58;17.10;99.90
14993;DHT22;7592;51.088;13.732;2023-07-20T03:43:50;17.20;99.90
14993;DHT22;7592;51.088;13.732;2023-07-20T03:48:42;17.30;99.90
14993;DHT22;7592;51.088;13.732;2023-07-20T03:53:34;17.50;99.90
14993;DHT22;7592;51.088;13.732;2023-07-20T03:58:27;17.60;99.90
14993;DHT22;7592;51.088;13.732;2023-07-20T04:03:20;17.80;99.90
14993;DHT22;7592;51.088;13.732;2023-07-20T04:08:12;18.10;99.90
14993;DHT22;7592;51.088;13.732;2023-07-20T04:13:05;18.20;99.90
14993;DHT22;7592;51.088;13.732;2023-07-20T04:17:58;18.40;99.90
14993;DHT22;7592;51.088;13.732;2023-07-20T04:22:50;18.70;99.90
14993;DHT22;7592;51.088;13.732;2023-07-20T04:27:43;19.10;99.90
14993;DHT22;7592;51.088;13.732;2023-07-20T04:32:36;19.30;99.90
14993;DHT22;7592;51.088;13.732;2023-07-20T04:37:30;19.30;99.90
14993;DHT22;7592;51.088;13.732;2023-07-20T04:42:24;19.30;99.90
14993;DHT22;7592;51.088;13.732;2023-07-20T04:47:16;19.20;99.90
14993;DHT22;7592;51.088;13.732;2023-07-20T04:52:08;19.20;99.90
14993;DHT22;7592;51.088;13.732;2023-07-20T04:57:01;19.40;99.90
14993;DHT22;7592;51.088;13.732;2023-07-20T05:01:54;20.00;99.90
14993;DHT22;7592;51.088;13.732;2023-07-20T05:06:46;20.50;99.90
14993;DHT22;7592;51.088;13.732;2023-07-20T05:11:39;21.50;99.90
14993;DHT22;7592;51.088;13.732;2023-07-20T05:16:31;24.40;99.90
14993;DHT22;7592;51.088;13.732;2023-07-20T05:21:27;24.00;99.90
14993;DHT22;7592;51.088;13.732;2023-07-20T05:26:20;22.60;99.90
14993;DHT22;7592;51.088;13.732;2023-07-20T05:31:12;21.70;99.90
14993;DHT22;7592;51.088;13.732;2023-07-20T05:41:18;22.70;99.90
14993;DHT22;7592;51.088;13.732;2023-07-20T05:46:10;23.00;99.90
14993;DHT22;7592;51.088;13.732;2023-07-20T05:51:03;22.70;99.90
14993;DHT22;7592;51.088;13.732;2023-07-20T05:55:55;21.90;99.90
14993;DHT22;7592;51.088;13.732;2023-07-20T06:00:48;21.40;99.90
14993;DHT22;7592;51.088;13.732;2023-07-20T06:05:41;21.20;99.90
14993;DHT22;7592;51.088;13.732;2023-07-20T06:10:33;20.80;99.90
14993;DHT22;7592;51.088;13.732;2023-07-20T06:15:27;21.00;99.90
14993;DHT22;7592;51.088;13.732;2023-07-20T06:20:20;21.30;99.90
14993;DHT22;7592;51.088;13.732;2023-07-20T06:25:12;21.70;99.90
14993;DHT22;7592;51.088;13.732;2023-07-20T06:30:05;22.70;99.90
14993;DHT22;7592;51.088;13.732;2023-07-20T06:34:57;24.00;99.90
14993;DHT22;7592;51.088;13.732;2023-07-20T06:39:49;24.70;99.90
14993;DHT22;7592;51.088;13.732;2023-07-20T06:44:44;23.80;99.90
14993;DHT22;7592;51.088;13.732;2023-07-20T06:49:37;22.80;99.90
14993;DHT22;7592;51.088;13.732;2023-07-20T06:54:29;22.20;99.90
14993;DHT22;7592;51.088;13.732;2023-07-20T06:59:26;22.10;99.90
14993;DHT22;7592;51.088;13.732;2023-07-20T07:04:18;22.20;99.90
14993;DHT22;7592;51.088;13.732;2023-07-20T07:09:11;22.20;99.90
14993;DHT22;7592;51.088;13.732;2023-07-20T07:14:03;22.30;99.90
14993;DHT22;7592;51.088;13.732;2023-07-20T07:18:56;22.60;99.90
14993;DHT22;7592;51.088;13.732;2023-07-20T07:23:51;22.90;99.90
14993;DHT22;7592;51.088;13.732;2023-07-20T07:28:45;23.30;99.90
14993;DHT22;7592;51.088;13.732;2023-07-20T07:33:38;23.90;99.90
14993;DHT22;7592;51.088;13.732;2023-07-20T07:38:30;24.40;99.90
14993;DHT22;7592;51.088;13.732;2023-07-20T07:43:42;24.50;99.90
14993;DHT22;7592;51.088;13.732;2023-07-20T07:48:35;24.50;99.90
14993;DHT22;7592;51.088;13.732;2023-07-20T07:53:27;25.00;99.90
14993;DHT22;7592;51.088;13.732;2023-07-20T07:58:20;25.80;99.90
14993;DHT22;7592;51.088;13.732;2023-07-20T08:03:12;27.40;99.90
14993;DHT22;7592;51.088;13.732;2023-07-20T08:08:05;30.70;99.90
14993;DHT22;7592;51.088;13.732;2023-07-20T08:12:57;31.70;93.50
14993;DHT22;7592;51.088;13.732;2023-07-20T08:17:49;32.20;90.50
14993;DHT22;7592;51.088;13.732;2023-07-20T08:22:44;34.30;83.90
14993;DHT22;7592;51.088;13.732;2023-07-20T08:27:39;35.80;69.00
14993;DHT22;7592;51.088;13.732;2023-07-20T08:32:33;34.10;73.00
14993;DHT22;7592;51.088;13.732;2023-07-20T08:37:25;36.20;68.60
14993;DHT22;7592;51.088;13.732;2023-07-20T08:42:25;38.20;59.80
14993;DHT22;7592;51.088;13.732;2023-07-20T08:47:18;39.50;55.80
14993;DHT22;7592;51.088;13.732;2023-07-20T08:52:12;37.40;57.20
14993;DHT22;7592;51.088;13.732;2023-07-20T08:57:05;37.60;57.10
14993;DHT22;7592;51.088;13.732;2023-07-20T09:01:59;39.80;53.20
14993;DHT22;7592;51.088;13.732;2023-07-20T09:06:51;39.70;51.20
14993;DHT22;7592;51.088;13.732;2023-07-20T09:11:47;39.20;51.60
14993;DHT22;7592;51.088;13.732;2023-07-20T09:16:52;36.40;54.40
14993;DHT22;7592;51.088;13.732;2023-07-20T09:21:46;33.80;58.10
14993;DHT22;7592;51.088;13.732;2023-07-20T09:26:43;32.80;60.60
14993;DHT22;7592;51.088;13.732;2023-07-20T09:31:36;34.70;58.20
14993;DHT22;7592;51.088;13.732;2023-07-20T09:36:38;34.10;57.60
14993;DHT22;7592;51.088;13.732;2023-07-20T09:41:40;31.40;61.50
14993;DHT22;7592;51.088;13.732;2023-07-20T09:46:46;29.50;67.20
14993;DHT22;7592;51.088;13.732;2023-07-20T09:51:42;28.40;70.70
14993;DHT22;7592;51.088;13.732;2023-07-20T09:56:35;27.20;77.70
14993;DHT22;7592;51.088;13.732;2023-07-20T10:01:28;26.80;82.80
14993;DHT22;7592;51.088;13.732;2023-07-20T10:06:24;26.40;87.30
14993;DHT22;7592;51.088;13.732;2023-07-20T10:11:17;25.60;95.70
14993;DHT22;7592;51.088;13.732;2023-07-20T10:16:18;24.90;99.90
14993;DHT22;7592;51.088;13.732;2023-07-20T10:21:16;24.20;99.90
14993;DHT22;7592;51.088;13.732;2023-07-20T10:26:13;24.60;99.90
14993;DHT22;7592;51.088;13.732;2023-07-20T10:31:08;25.30;99.90
14993;DHT22;7592;51.088;13.732;2023-07-20T10:36:02;25.40;99.90
14993;DHT22;7592;51.088;13.732;2023-07-20T10:40:57;24.90;99.90
14993;DHT22;7592;51.088;13.732;2023-07-20T10:45:51;25.00;99.90
14993;DHT22;7592;51.088;13.732;2023-07-20T10:50:44;25.40;99.90
14993;DHT22;7592;51.088;13.732;2023-07-20T10:55:36;26.20;99.90
14993;DHT22;7592;51.088;13.732;2023-07-20T11:00:30;26.30;99.90
14993;DHT22;7592;51.088;13.732;2023-07-20T11:05:35;27.20;99.90
14993;DHT22;7592;51.088;13.732;2023-07-20T11:10:27;27.30;99.90
14993;DHT22;7592;51.088;13.732;2023-07-20T11:15:20;26.60;99.90
14993;DHT22;7592;51.088;13.732;2023-07-20T11:20:16;26.00;99.90
14993;DHT22;7592;51.088;13.732;2023-07-20T11:25:11;25.70;99.90
14993;DHT22;7592;51.088;13.732;2023-07-20T11:30:04;25.90;99.90
14993;DHT22;7592;51.088;13.732;2023-07-20T11:34:56;27.50;99.90
14993;DHT22;7592;51.088;13.732;2023-07-20T11:39:49;30.30;99.90
14993;DHT22;7592;51.088;13.732;2023-07-20T11:44:41;30.80;97.40
14993;DHT22;7592;51.088;13.732;2023-07-20T11:49:41;29.60;97.80
14993;DHT22;7592;51.088;13.732;2023-07-20T11:54:41;28.90;97.50
14993;DHT22;7592;51.088;13.732;2023-07-20T11:59:56;28.30;99.30
14993;DHT22;7592;51.088;13.732;2023-07-20T12:04:56;28.10;98.70
14993;DHT22;7592;51.088;13.732;2023-07-20T12:10:11;27.90;99.10
14993;DHT22;7592;51.088;13.732;2023-07-20T12:15:25;27.10;99.90
14993;DHT22;7592;51.088;13.732;2023-07-20T12:20:33;26.20;99.90
14993;DHT22;7592;51.088;13.732;2023-07-20T12:25:38;25.40;99.90
14993;DHT22;7592;51.088;13.732;2023-07-20T12:30:34;24.80;99.90
14993;DHT22;7592;51.088;13.732;2023-07-20T12:35:27;24.60;99.90
14993;DHT22;7592;51.088;13.732;2023-07-20T12:40:19;24.50;99.90
14993;DHT22;7592;51.088;13.732;2023-07-20T12:45:13;24.50;99.90
14993;DHT22;7592;51.088;13.732;2023-07-20T12:50:07;24.60;99.90
14993;DHT22;7592;51.088;13.732;2023-07-20T12:54:59;24.90;99.90
14993;DHT22;7592;51.088;13.732;2023-07-20T12:59:53;25.10;99.90
14993;DHT22;7592;51.088;13.732;2023-07-20T13:04:45;25.30;99.90
14993;DHT22;7592;51.088;13.732;2023-07-20T13:09:38;25.20;99.90
14993;DHT22;7592;51.088;13.732;2023-07-20T13:14:30;25.10;99.90
14993;DHT22;7592;51.088;13.732;2023-07-20T13:19:22;25.10;99.90
14993;DHT22;7592;51.088;13.732;2023-07-20T13:24:15;24.70;99.90
14993;DHT22;7592;51.088;13.732;2023-07-20T13:29:07;24.80;99.90
14993;DHT22;7592;51.088;13.732;2023-07-20T13:33:59;24.60;99.90
14993;DHT22;7592;51.088;13.732;2023-07-20T13:38:52;24.40;99.90
14993;DHT22;7592;51.088;13.732;2023-07-20T13:43:45;24.30;99.90
14993;DHT22;7592;51.088;13.732;2023-07-20T13:48:37;24.70;99.90
14993;DHT22;7592;51.088;13.732;2023-07-20T13:53:30;25.00;99.90
14993;DHT22;7592;51.088;13.732;2023-07-20T13:58:42;25.10;99.90
14993;DHT22;7592;51.088;13.732;2023-07-20T14:03:34;25.20;99.90
14993;DHT22;7592;51.088;13.732;2023-07-20T14:08:28;25.20;99.90
14993;DHT22;7592;51.088;13.732;2023-07-20T14:13:22;25.40;99.90
14993;DHT22;7592;51.088;13.732;2023-07-20T14:18:28;25.60;99.90
14993;DHT22;7592;51.088;13.732;2023-07-20T14:23:21;25.30;99.90
14993;DHT22;7592;51.088;13.732;2023-07-20T14:28:16;25.40;99.90
14993;DHT22;7592;51.088;13.732;2023-07-20T14:33:08;25.50;99.90
14993;DHT22;7592;51.088;13.732;2023-07-20T14:38:01;25.60;99.90
14993;DHT22;7592;51.088;13.732;2023-07-20T14:42:53;25.60;99.90
14993;DHT22;7592;51.088;13.732;2023-07-20T14:47:45;25.80;99.90
14993;DHT22;7592;51.088;13.732;2023-07-20T14:52:37;26.10;99.90
14993;DHT22;7592;51.088;13.732;2023-07-20T14:57:40;26.20;99.90
14993;DHT22;7592;51.088;13.732;2023-07-20T15:02:32;25.60;99.90
14993;DHT22;7592;51.088;13.732;2023-07-20T15:07:24;24.60;99.90
14993;DHT22;7592;51.088;13.732;2023-07-20T15:12:16;24.10;99.90
14993;DHT22;7592;51.088;13.732;2023-07-20T15:17:09;23.80;99.90
14993;DHT22;7592;51.088;13.732;2023-07-20T15:22:05;23.90;99.90
14993;DHT22;7592;51.088;13.732;2023-07-20T15:26:58;24.40;99.90
14993;DHT22;7592;51.088;13.732;2023-07-20T15:31:52;24.40;99.90
14993;DHT22;7592;51.088;13.732;2023-07-20T15:36:47;24.20;99.90
14993;DHT22;7592;51.088;13.732;2023-07-20T15:41:39;24.20;99.90
14993;DHT22;7592;51.088;13.732;2023-07-20T15:51:34;23.80;99.90
14993;DHT22;7592;51.088;13.732;2023-07-20T15:56:28;23.80;99.90
14993;DHT22;7592;51.088;13.732;2023-07-20T16:01:20;23.80;99.90
14993;DHT22;7592;51.088;13.732;2023-07-20T16:28:17;23.40;99.90
14993;DHT22;7592;51.088;13.732;2023-07-20T16:33:09;23.20;99.90
14993;DHT22;7592;51.088;13.732;2023-07-20T16:38:01;23.10;99.90
14993;DHT22;7592;51.088;13.732;2023-07-20T16:42:56;22.90;99.90
14993;DHT22;7592;51.088;13.732;2023-07-20T16:47:51;22.50;99.90
14993;DHT22;7592;51.088;13.732;2023-07-20T16:52:44;22.30;99.90
14993;DHT22;7592;51.088;13.732;2023-07-20T16:57:36;22.10;99.90
14993;DHT22;7592;51.088;13.732;2023-07-20T17:02:32;22.10;99.90
14993;DHT22;7592;51.088;13.732;2023-07-20T17:07:24;22.00;99.90
14993;DHT22;7592;51.088;13.732;2023-07-20T17:12:18;21.80;99.90
14993;DHT22;7592;51.088;13.732;2023-07-20T17:17:10;21.80;99.90
14993;DHT22;7592;51.088;13.732;2023-07-20T17:22:02;21.70;99.90
14993;DHT22;7592;51.088;13.732;2023-07-20T17:26:54;21.70;99.90
14993;DHT22;7592;51.088;13.732;2023-07-20T17:31:49;21.60;99.90
14993;DHT22;7592;51.088;13.732;2023-07-20T17:36:42;21.50;99.90
14993;DHT22;7592;51.088;13.732;2023-07-20T17:41:37;21.30;99.90
14993;DHT22;7592;51.088;13.732;2023-07-20T17:53:12;21.10;99.90
14993;DHT22;7592;51.088;13.732;2023-07-20T17:58:04;21.10;99.90
14993;DHT22;7592;51.088;13.732;2023-07-20T18:02:56;20.90;99.90
14993;DHT22;7592;51.088;13.732;2023-07-20T18:07:48;20.80;99.90
14993;DHT22;7592;51.088;13.732;2023-07-20T18:12:41;20.70;99.90
14993;DHT22;7592;51.088;13.732;2023-07-20T18:17:34;20.60;99.90
14993;DHT22;7592;51.088;13.732;2023-07-20T18:22:27;20.50;99.90
14993;DHT22;7592;51.088;13.732;2023-07-20T18:27:19;20.40;99.90
14993;DHT22;7592;51.088;13.732;2023-07-20T18:32:11;20.30;99.90
14993;DHT22;7592;51.088;13.732;2023-07-20T18:37:04;20.00;99.90
14993;DHT22;7592;51.088;13.732;2023-07-20T18:41:57;19.90;99.90
14993;DHT22;7592;51.088;13.732;2023-07-20T18:46:49;19.70;99.90
14993;DHT22;7592;51.088;13.732;2023-07-20T18:51:41;19.50;99.90
14993;DHT22;7592;51.088;13.732;2023-07-20T18:56:34;19.40;99.90
14993;DHT22;7592;51.088;13.732;2023-07-20T19:01:26;19.20;99.90
14993;DHT22;7592;51.088;13.732;2023-07-20T19:06:20;19.00;99.90
14993;DHT22;7592;51.088;13.732;2023-07-20T19:11:14;18.90;99.90
14993;DHT22;7592;51.088;13.732;2023-07-20T19:16:10;18.70;99.90
14993;DHT22;7592;51.088;13.732;2023-07-20T19:21:02;18.60;99.90
14993;DHT22;7592;51.088;13.732;2023-07-20T19:25:54;18.50;99.90
14993;DHT22;7592;51.088;13.732;2023-07-20T19:30:46;18.40;99.90
14993;DHT22;7592;51.088;13.732;2023-07-20T19:35:38;18.30;99.90
14993;DHT22;7592;51.088;13.732;2023-07-20T19:40:32;18.20;99.90
14993;DHT22;7592;51.088;13.732;2023-07-20T19:45:24;18.10;99.90
14993;DHT22;7592;51.088;13.732;2023-07-20T19:50:16;18.10;99.90
14993;DHT22;7592;51.088;13.732;2023-07-20T19:55:09;18.20;99.90
14993;DHT22;7592;51.088;13.732;2023-07-20T20:00:02;18.10;99.90
14993;DHT22;7592;51.088;13.732;2023-07-20T20:04:59;17.90;99.90
14993;DHT22;7592;51.088;13.732;2023-07-20T20:09:52;17.70;99.90
14993;DHT22;7592;51.088;13.732;2023-07-20T20:14:44;17.50;99.90
14993;DHT22;7592;51.088;13.732;2023-07-20T20:19:36;17.50;99.90
14993;DHT22;7592;51.088;13.732;2023-07-20T20:24:29;17.40;99.90
14993;DHT22;7592;51.088;13.732;2023-07-20T20:29:21;17.30;99.90
14993;DHT22;7592;51.088;13.732;2023-07-20T20:34:13;17.20;99.90
14993;DHT22;7592;51.088;13.732;2023-07-20T20:39:06;17.00;99.90
14993;DHT22;7592;51.088;13.732;2023-07-20T20:43:59;17.00;99.90
14993;DHT22;7592;51.088;13.732;2023-07-20T20:48:51;16.80;99.90
14993;DHT22;7592;51.088;13.732;2023-07-20T20:53:43;16.80;99.90
14993;DHT22;7592;51.088;13.732;2023-07-20T20:58:38;16.70;99.90
14993;DHT22;7592;51.088;13.732;2023-07-20T21:03:30;16.60;99.90
14993;DHT22;7592;51.088;13.732;2023-07-20T21:08:22;16.60;99.90
14993;DHT22;7592;51.088;13.732;2023-07-20T21:13:15;16.50;99.90
14993;DHT22;7592;51.088;13.732;2023-07-20T21:18:07;16.50;99.90
14993;DHT22;7592;51.088;13.732;2023-07-20T21:23:00;16.40;99.90
14993;DHT22;7592;51.088;13.732;2023-07-20T21:27:52;16.30;99.90
14993;DHT22;7592;51.088;13.732;2023-07-20T21:32:44;16.30;99.90
14993;DHT22;7592;51.088;13.732;2023-07-20T21:37:36;16.20;99.90
14993;DHT22;7592;51.088;13.732;2023-07-20T21:42:29;16.10;99.90
14993;DHT22;7592;51.088;13.732;2023-07-20T21:47:21;15.90;99.90
14993;DHT22;7592;51.088;13.732;2023-07-20T21:52:13;16.00;99.90
14993;DHT22;7592;51.088;13.732;2023-07-20T21:57:06;16.00;99.90
14993;DHT22;7592;51.088;13.732;2023-07-20T22:01:58;16.00;99.90
14993;DHT22;7592;51.088;13.732;2023-07-20T22:06:51;16.10;99.90
14993;DHT22;7592;51.088;13.732;2023-07-20T22:11:44;16.20;99.90
14993;DHT22;7592;51.088;13.732;2023-07-20T22:16:36;16.30;99.90
14993;DHT22;7592;51.088;13.732;2023-07-20T22:21:28;16.50;99.90
14993;DHT22;7592;51.088;13.732;2023-07-20T22:26:21;16.50;99.90
14993;DHT22;7592;51.088;13.732;2023-07-20T22:31:13;16.40;99.90
14993;DHT22;7592;51.088;13.732;2023-07-20T22:36:06;16.30;99.90
14993;DHT22;7592;51.088;13.732;2023-07-20T22:40:58;16.30;99.90
14993;DHT22;7592;51.088;13.732;2023-07-20T22:45:51;16.30;99.90
14993;DHT22;7592;51.088;13.732;2023-07-20T22:50:43;16.20;99.90
14993;DHT22;7592;51.088;13.732;2023-07-20T22:55:43;16.00;99.90
14993;DHT22;7592;51.088;13.732;2023-07-20T23:00:35;15.90;99.90
14993;DHT22;7592;51.088;13.732;2023-07-20T23:05:28;16.00;99.90
14993;DHT22;7592;51.088;13.732;2023-07-20T23:10:20;16.00;99.90
14993;DHT22;7592;51.088;13.732;2023-07-20T23:15:14;16.10;99.90
14993;DHT22;7592;51.088;13.732;2023-07-20T23:20:07;16.10;99.90
14993;DHT22;7592;51.088;13.732;2023-07-20T23:25:10;16.10;99.90
14993;DHT22;7592;51.088;13.732;2023-07-20T23:30:03;16.10;99.90
14993;DHT22;7592;51.088;13.732;2023-07-20T23:34:55;16.20;99.90
14993;DHT22;7592;51.088;13.732;2023-07-20T23:39:47;16.20;99.90
14993;DHT22;7592;51.088;13.732;2023-07-20T23:44:41;16.20;99.90
14993;DHT22;7592;51.088;13.732;2023-07-20T23:49:33;16.10;99.90
14993;DHT22;7592;51.088;13.732;2023-07-20T23:54:25;16.10;99.90
14993;DHT22;7592;51.088;13.732;2023-07-20T23:59:17;16.00;99.90
